Aérodrome :
LOGIN :

S'inscrire | Disclaimer

   EN    FR    IT 

 










Légende :    VFR   VFR Marginal   IFR   IFR Intensif   IFR Très Intensif
Visi : 
Plafond : 
>= 8 km
>= 3000ft
5 à 8 km
1000 à 3000 ft
1500m à 5 km
500 à 1000 ft
800 à 1500m
200 à 500 ft
< 800m
< 200 ft
Symboles :   Orages  Brouillard  Fortes neiges  Fortes précipitations  Vent > 20 kt
SIGMETs :   Divers  Orages  Givrage  Turbulence  Onde Orograph.  Cendres Volcan.







- Altitude de l'aérodrome : 726 ft
- Code IATA : DIJ
- Voir les cartes d'approche


LFSD - Dijon

DERNIER METAR :
  • 202130Z AUTO 32002KT 5000 -RA BR SCT012/// OVC022/// ///TCU 04/03 Q1006

METARs EXPIRÉS :
  • 202100Z AUTO 36003KT 5000 -RA BR FEW012/// BKN020/// OVC026/// ///TCU 04/03 Q1005
  • 202030Z AUTO 35005KT 7000 -RADZ OVC024/// ///TCU 04/02 Q1005
  • 202000Z AUTO 01005KT 7000 -DZ OVC019 04/03 Q1004
  • 201930Z AUTO 35003KT 6000 BKN012 OVC019 04/03 Q1005
  • 201900Z AUTO 00000KT 7000 BKN013 OVC018 04/03 Q1005

Prévision TAF périmée.
Pas de NOTAMs connus pour ce terrain.



MET'MAP, la Météo Aéronautique d'un coup d'oeil ! - Copyright ORBIFLY Décembre 2007 - Disclaimer

ORBIFLY MET'MAP TEAM :

Programmation & Développement : Alexandra Zaïnal
Conception & Développement : Baudouin d'Aumeries
Co-Programmation & Développement : Marc-Olivier Méhu
Soutien technique & logistique : Manuel Goepfert

Contact : metmap@orbifly.com




SOURCES & CREDITS :

   NOAA